Cord, Arkansas
Current Conditions -  °F | °C
As of 8:56 PM on Sunday 23 Nov 2014 (Local Time) from KM19 Reporting Station
Overcast Overcast  
Wind Chill: 61°   Ceiling: 900
Heat Index: 61°   Visibility: 10mi
Dew Point: 60°   Wind: 15mph
Humidity: 96%   Direction: 200°SSW
Pressure: 29.38"   Gusts: NA
Location:  35.81°N, 91.34°W
Report Text: KM19 240256Z AUTO 20013KT 10SM OVC009 16/16 A2938 RMK AO2 50005 60000 T01610155 CIG 006V010 SLP948
Loading
Personal Weather Stations






























Interactive Weather Map New forecast layout! Learn more

10-Day Weather Forecast

Advertisements
Track Severe Weather on mobile